Time;durP1;ratioP1;P1;durP2;ratioP2;P2;SDS_P1;SDS_P2;PMS_P1;PMS_P2;Temp;Humidity;BMP_temperature;BMP_pressure;BME280_temperature;BME280_humidity;BME280_pressure;Samples;Min_cycle;Max_cycle;Signal;HPM_P1;HPM_P2
2022/12/27 00:00:58;;;;;;;8.43;2.15;;;;;;;;;;4995370;28;20484;-93
2022/12/27 00:03:23;;;;;;;8.73;2.08;;;;;;;;;;4992382;28;20565;-94
2022/12/27 00:05:51;;;;;;;10.20;2.10;;;;;;;;;;4981738;28;20076;-93
2022/12/27 00:08:16;;;;;;;8.07;2.47;;;;;;;;;;4983315;28;20046;-93
2022/12/27 00:10:41;;;;;;;9.93;2.72;;;;;;;;;;4994634;28;20517;-94
2022/12/27 00:13:07;;;;;;;12.48;3.17;;;;;;;;;;4974986;28;21863;-94
2022/12/27 00:15:34;;;;;;;12.05;2.90;;;;;;;;;;4989623;28;20061;-93
2022/12/27 00:17:59;;;;;;;9.40;2.47;;;;;;;;;;4975451;28;20030;-95
2022/12/27 00:20:28;;;;;;;13.13;3.28;;;;;;;;;;4986640;28;20037;-94
2022/12/27 00:22:53;;;;;;;10.32;2.30;;;;;;;;;;4973635;28;20030;-93
2022/12/27 00:25:18;;;;;;;9.85;2.00;;;;;;;;;;4972497;28;20030;-94
2022/12/27 00:27:44;;;;;;;7.70;1.75;;;;;;;;;;4985835;28;20117;-94
2022/12/27 00:30:10;;;;;;;6.20;1.30;;;;;;;;;;4988609;28;20027;-93
2022/12/27 00:32:35;;;;;;;5.43;1.30;;;;;;;;;;4973756;28;20030;-95
2022/12/27 00:35:01;;;;;;;6.93;1.40;;;;;;;;;;4989038;28;20470;-94
2022/12/27 00:37:27;;;;;;;7.20;1.70;;;;;;;;;;4971901;28;20100;-93
2022/12/27 00:39:55;;;;;;;6.97;1.88;;;;;;;;;;4990879;28;20109;-94
2022/12/27 00:42:20;;;;;;;10.13;1.63;;;;;;;;;;4972278;28;20030;-93
2022/12/27 00:44:46;;;;;;;10.40;2.15;;;;;;;;;;4989160;28;20026;-94
2022/12/27 00:47:11;;;;;;;13.15;2.95;;;;;;;;;;4990649;28;21562;-94
2022/12/27 00:49:36;;;;;;;12.80;3.13;;;;;;;;;;4970963;28;20118;-93
2022/12/27 00:52:03;;;;;;;10.57;2.42;;;;;;;;;;4985289;28;20459;-94
2022/12/27 00:54:28;;;;;;;11.43;3.03;;;;;;;;;;4990928;28;20034;-95
2022/12/27 00:56:53;;;;;;;11.80;3.20;;;;;;;;;;4974986;28;20102;-95
2022/12/27 00:59:18;;;;;;;13.15;2.80;;;;;;;;;;4972881;28;20042;-96
2022/12/27 01:01:44;;;;;;;9.02;2.08;;;;;;;;;;4985292;28;20541;-95
2022/12/27 01:04:11;;;;;;;15.20;2.17;;;;;;;;;;4971096;28;20051;-94
2022/12/27 01:06:39;;;;;;;13.48;2.45;;;;;;;;;;4971333;28;20084;-95
2022/12/27 01:09:05;;;;;;;8.38;1.50;;;;;;;;;;4993829;28;20505;-95
2022/12/27 01:11:30;;;;;;;7.93;1.65;;;;;;;;;;4974076;28;20511;-95
2022/12/27 01:13:59;;;;;;;8.82;2.17;;;;;;;;;;4990578;28;20026;-94
2022/12/27 01:16:26;;;;;;;6.43;1.40;;;;;;;;;;4980180;28;20038;-95
2022/12/27 01:18:52;;;;;;;9.15;1.70;;;;;;;;;;4991466;28;20032;-95
2022/12/27 01:21:18;;;;;;;6.22;1.17;;;;;;;;;;4989212;28;20042;-94
2022/12/27 01:23:44;;;;;;;5.45;1.10;;;;;;;;;;4987336;28;20036;-95
2022/12/27 01:26:11;;;;;;;8.98;1.40;;;;;;;;;;4970546;28;20672;-95
2022/12/27 01:28:37;;;;;;;6.65;1.20;;;;;;;;;;4968935;28;20030;-94
2022/12/27 01:31:06;;;;;;;7.75;1.48;;;;;;;;;;4972488;28;20541;-94
2022/12/27 01:33:31;;;;;;;6.78;1.40;;;;;;;;;;4970295;28;20049;-94
2022/12/27 01:35:57;;;;;;;13.52;1.60;;;;;;;;;;4969094;28;20026;-94
2022/12/27 01:38:22;;;;;;;7.45;1.33;;;;;;;;;;4968297;28;20037;-95
2022/12/27 01:40:48;;;;;;;10.70;1.70;;;;;;;;;;4971043;28;20658;-95
2022/12/27 01:43:17;;;;;;;10.25;1.30;;;;;;;;;;4968547;28;20064;-95
2022/12/27 01:45:45;;;;;;;8.73;1.50;;;;;;;;;;4968252;28;20038;-94
2022/12/27 01:48:16;;;;;;;8.95;1.63;;;;;;;;;;4991277;28;20026;-93
2022/12/27 01:50:44;;;;;;;7.03;1.20;;;;;;;;;;4989782;28;20080;-94
2022/12/27 01:53:24;;;;;;;6.43;1.20;;;;;;;;;;4969981;28;20027;-94
2022/12/27 01:55:58;;;;;;;9.00;1.60;;;;;;;;;;4984620;28;20489;-95
2022/12/27 01:58:38;;;;;;;9.10;1.20;;;;;;;;;;4972529;28;20026;-94
2022/12/27 02:01:04;;;;;;;6.70;1.27;;;;;;;;;;4972525;28;20085;-94
2022/12/27 02:03:34;;;;;;;14.90;1.60;;;;;;;;;;4993558;28;20044;-95
2022/12/27 02:06:01;;;;;;;9.05;1.67;;;;;;;;;;4989144;28;21738;-96
2022/12/27 02:08:32;;;;;;;9.45;1.15;;;;;;;;;;4968042;28;20121;-95
2022/12/27 02:10:58;;;;;;;6.03;0.93;;;;;;;;;;4966198;28;20026;-95
2022/12/27 02:13:23;;;;;;;11.88;1.70;;;;;;;;;;4973806;28;20657;-95
2022/12/27 02:15:48;;;;;;;8.65;1.38;;;;;;;;;;4971964;28;20118;-95
2022/12/27 02:18:14;;;;;;;10.45;1.50;;;;;;;;;;4979951;28;21248;-95
2022/12/27 02:20:52;;;;;;;6.05;1.30;;;;;;;;;;4990864;28;20020;-95
2022/12/27 02:24:02;;;;;;;7.18;1.38;;;;;;;;;;4983450;28;20121;-95
2022/12/27 02:26:40;;;;;;;8.65;1.38;;;;;;;;;;4929557;29;20146;-95
2022/12/27 02:29:13;;;;;;;9.15;1.60;;;;;;;;;;4924634;29;20016;-95
2022/12/27 02:31:38;;;;;;;7.57;1.17;;;;;;;;;;4947579;28;20043;-96
2022/12/27 02:34:29;;;;;;;12.82;1.70;;;;;;;;;;4931269;28;20099;-95
2022/12/27 02:36:58;;;;;;;7.05;1.30;;;;;;;;;;4931817;29;20059;-95
2022/12/27 02:39:25;;;;;;;8.40;1.25;;;;;;;;;;4927443;29;20208;-95
2022/12/27 02:53:11;;;;;;;9.15;1.45;;;;;;;;;;4922033;29;20506;-95
2022/12/27 02:58:39;;;;;;;8.13;1.60;;;;;;;;;;4923383;29;20580;-94
2022/12/27 03:03:58;;;;;;;6.95;1.30;;;;;;;;;;5027558;23;20516;-94
2022/12/27 03:06:50;;;;;;;8.27;1.25;;;;;;;;;;5007637;28;20033;-93
2022/12/27 03:17:52;;;;;;;6.78;1.20;;;;;;;;;;5034888;28;20743;-95
2022/12/27 03:25:52;;;;;;;10.30;1.40;;;;;;;;;;5043305;28;20805;-95
2022/12/27 03:34:03;;;;;;;6.55;1.17;;;;;;;;;;5032703;28;20134;-95
2022/12/27 03:39:32;;;;;;;9.00;1.13;;;;;;;;;;5026804;28;20117;-95
2022/12/27 03:45:04;;;;;;;7.53;1.50;;;;;;;;;;5026460;28;20052;-96
2022/12/27 03:47:34;;;;;;;9.45;1.02;;;;;;;;;;5014194;28;20117;-96
2022/12/27 03:50:09;;;;;;;5.22;1.10;;;;;;;;;;5007239;28;20556;-95
2022/12/27 03:52:43;;;;;;;9.63;1.13;;;;;;;;;;5015069;28;20461;-95
2022/12/27 03:55:09;;;;;;;8.10;1.05;;;;;;;;;;5012778;28;20100;-96
2022/12/27 03:57:34;;;;;;;8.25;1.40;;;;;;;;;;5030815;28;20412;-95
2022/12/27 04:00:00;;;;;;;7.72;1.25;;;;;;;;;;5008267;28;20025;-95
2022/12/27 04:02:25;;;;;;;11.07;1.38;;;;;;;;;;5008466;28;20033;-95
2022/12/27 04:04:51;;;;;;;7.70;1.13;;;;;;;;;;5016306;28;20500;-96
2022/12/27 04:07:17;;;;;;;7.53;0.93;;;;;;;;;;5013357;28;20041;-95
2022/12/27 04:35:04;;;;;;;8.75;1.33;;;;;;;;;;5028127;28;20080;-95
2022/12/27 04:37:29;;;;;;;8.05;1.45;;;;;;;;;;5006661;28;20109;-96
2022/12/27 04:56:50;;;;;;;5.97;1.20;;;;;;;;;;4956676;29;20033;-96
2022/12/27 05:02:03;;;;;;;8.00;1.20;;;;;;;;;;4953532;28;20038;-95
2022/12/27 05:04:30;;;;;;;10.27;1.17;;;;;;;;;;4954701;28;20142;-95
2022/12/27 05:06:55;;;;;;;5.82;0.93;;;;;;;;;;4949410;29;20039;-96
2022/12/27 05:14:53;;;;;;;10.38;1.25;;;;;;;;;;4955446;28;20114;-94
2022/12/27 05:17:19;;;;;;;6.88;1.05;;;;;;;;;;4940785;28;20133;-95
2022/12/27 05:19:44;;;;;;;7.63;1.20;;;;;;;;;;4938544;29;20035;-95
2022/12/27 05:27:37;;;;;;;9.70;1.83;;;;;;;;;;5012538;28;19976;-96
2022/12/27 05:30:02;;;;;;;11.90;1.90;;;;;;;;;;4999659;28;20030;-95
2022/12/27 05:32:27;;;;;;;8.32;1.90;;;;;;;;;;5019250;28;20017;-95
2022/12/27 05:34:53;;;;;;;9.38;1.65;;;;;;;;;;5007949;28;20017;-95
2022/12/27 05:37:18;;;;;;;7.13;1.50;;;;;;;;;;5023278;28;20034;-95
2022/12/27 05:39:43;;;;;;;9.18;1.67;;;;;;;;;;5010823;28;20045;-95
2022/12/27 05:42:09;;;;;;;8.02;1.70;;;;;;;;;;5001633;28;20034;-95
2022/12/27 05:44:34;;;;;;;9.80;1.52;;;;;;;;;;5008550;28;20023;-95
2022/12/27 05:46:59;;;;;;;9.35;1.60;;;;;;;;;;5012578;28;20002;-96
2022/12/27 05:49:24;;;;;;;8.73;1.63;;;;;;;;;;5010835;28;20081;-95
2022/12/27 05:51:50;;;;;;;8.60;1.73;;;;;;;;;;4990753;28;20021;-95
2022/12/27 05:54:15;;;;;;;8.07;1.90;;;;;;;;;;4997058;28;20022;-95
2022/12/27 05:56:40;;;;;;;8.20;1.67;;;;;;;;;;4990838;28;20060;-95
2022/12/27 05:59:06;;;;;;;10.18;1.90;;;;;;;;;;4991212;28;20053;-95
2022/12/27 06:01:32;;;;;;;8.75;1.85;;;;;;;;;;4996141;28;20030;-95
2022/12/27 06:03:57;;;;;;;7.25;1.67;;;;;;;;;;5022868;28;20501;-95
2022/12/27 06:06:23;;;;;;;11.45;1.90;;;;;;;;;;5001229;28;20057;-95
2022/12/27 06:08:48;;;;;;;14.02;2.10;;;;;;;;;;5004913;28;20032;-95
2022/12/27 06:11:15;;;;;;;8.77;2.00;;;;;;;;;;5020498;28;20455;-95
2022/12/27 06:13:41;;;;;;;49.33;4.90;;;;;;;;;;5001389;28;20038;-95
2022/12/27 06:16:07;;;;;;;10.50;2.15;;;;;;;;;;5005748;28;20054;-95
2022/12/27 06:18:34;;;;;;;11.65;2.00;;;;;;;;;;5002380;28;20028;-94
2022/12/27 06:21:03;;;;;;;12.50;2.88;;;;;;;;;;5003053;28;20029;-94
2022/12/27 06:23:29;;;;;;;8.75;1.83;;;;;;;;;;4999383;28;20033;-94
2022/12/27 06:25:54;;;;;;;22.75;2.92;;;;;;;;;;5006945;28;20079;-95
2022/12/27 06:28:19;;;;;;;7.45;1.80;;;;;;;;;;5001659;28;20565;-95
2022/12/27 06:30:45;;;;;;;11.80;1.90;;;;;;;;;;5024421;28;20461;-94
2022/12/27 06:33:12;;;;;;;10.27;1.85;;;;;;;;;;5006138;28;20017;-95
2022/12/27 06:35:37;;;;;;;10.75;2.17;;;;;;;;;;5021721;28;20076;-96
2022/12/27 06:38:03;;;;;;;11.57;2.70;;;;;;;;;;5005271;28;20060;-96
2022/12/27 06:40:28;;;;;;;7.20;1.90;;;;;;;;;;5028399;28;20029;-96
2022/12/27 06:42:53;;;;;;;11.35;1.88;;;;;;;;;;5004825;28;20520;-96
2022/12/27 06:45:18;;;;;;;8.90;1.55;;;;;;;;;;4998734;28;21720;-95
2022/12/27 06:47:44;;;;;;;9.65;1.60;;;;;;;;;;5004852;28;20061;-95
2022/12/27 06:50:09;;;;;;;10.98;1.65;;;;;;;;;;5010200;28;20072;-95
2022/12/27 06:52:34;;;;;;;8.20;1.70;;;;;;;;;;5025254;28;20049;-96
2022/12/27 06:55:00;;;;;;;11.73;1.98;;;;;;;;;;5005853;28;20471;-95
2022/12/27 06:57:25;;;;;;;7.50;2.03;;;;;;;;;;5028166;28;20025;-95
2022/12/27 06:59:50;;;;;;;11.80;1.90;;;;;;;;;;5026682;28;20044;-94
2022/12/27 07:02:16;;;;;;;13.07;2.28;;;;;;;;;;4997122;28;20030;-95
2022/12/27 07:04:45;;;;;;;7.95;1.70;;;;;;;;;;5007019;28;20029;-95
2022/12/27 07:07:10;;;;;;;10.27;1.90;;;;;;;;;;5011834;28;20029;-95
2022/12/27 07:09:36;;;;;;;11.38;2.15;;;;;;;;;;5006710;28;20041;-95
2022/12/27 07:12:01;;;;;;;8.55;1.90;;;;;;;;;;5005030;28;20056;-95
2022/12/27 07:14:27;;;;;;;9.88;2.40;;;;;;;;;;5012108;28;20038;-95
2022/12/27 07:16:52;;;;;;;9.05;2.00;;;;;;;;;;5024674;28;20493;-95
2022/12/27 07:19:17;;;;;;;9.85;2.30;;;;;;;;;;5028451;28;20029;-95
2022/12/27 07:21:42;;;;;;;11.32;2.70;;;;;;;;;;5010296;28;20032;-95
2022/12/27 07:24:08;;;;;;;10.07;2.35;;;;;;;;;;5012845;28;20389;-95
2022/12/27 07:26:33;;;;;;;9.60;2.67;;;;;;;;;;5024643;28;21554;-96
2022/12/27 07:28:59;;;;;;;8.93;2.47;;;;;;;;;;5024235;28;20108;-95
2022/12/27 07:31:28;;;;;;;8.75;2.30;;;;;;;;;;5009616;28;20025;-95
2022/12/27 07:33:53;;;;;;;14.77;3.85;;;;;;;;;;5008266;28;20884;-96
2022/12/27 07:36:20;;;;;;;11.63;2.47;;;;;;;;;;5008385;28;20033;-95
2022/12/27 07:38:46;;;;;;;14.45;3.42;;;;;;;;;;5003774;28;20033;-96
2022/12/27 07:41:12;;;;;;;14.23;2.70;;;;;;;;;;5021990;28;20024;-95
2022/12/27 07:43:37;;;;;;;9.02;2.53;;;;;;;;;;5022794;28;20101;-94
2022/12/27 07:46:08;;;;;;;11.63;2.47;;;;;;;;;;5004004;28;20030;-95
2022/12/27 07:48:34;;;;;;;12.32;2.92;;;;;;;;;;5004806;28;20032;-94
2022/12/27 07:51:00;;;;;;;10.15;2.80;;;;;;;;;;5002295;28;20101;-95
2022/12/27 07:53:27;;;;;;;8.30;2.28;;;;;;;;;;5026159;28;20017;-95
2022/12/27 07:55:52;;;;;;;10.02;2.72;;;;;;;;;;5023860;28;20024;-94
2022/12/27 07:58:18;;;;;;;7.78;2.40;;;;;;;;;;5017503;28;20120;-94
2022/12/27 08:00:45;;;;;;;7.55;2.50;;;;;;;;;;5007340;28;20095;-95
2022/12/27 08:03:10;;;;;;;9.60;2.53;;;;;;;;;;5002513;28;20045;-96
2022/12/27 08:05:35;;;;;;;11.93;3.05;;;;;;;;;;5010737;28;20052;-94
2022/12/27 08:08:01;;;;;;;9.93;2.17;;;;;;;;;;5026419;28;20329;-94
2022/12/27 08:10:27;;;;;;;12.18;2.63;;;;;;;;;;5019722;28;20113;-95
2022/12/27 08:13:00;;;;;;;11.85;2.75;;;;;;;;;;5011520;28;20393;-94
2022/12/27 08:15:25;;;;;;;11.98;3.17;;;;;;;;;;5009727;28;20602;-93
2022/12/27 08:17:51;;;;;;;12.90;2.90;;;;;;;;;;5021024;28;20017;-96
2022/12/27 08:20:17;;;;;;;14.00;3.05;;;;;;;;;;5006944;28;20041;-94
2022/12/27 08:22:42;;;;;;;11.38;2.63;;;;;;;;;;5005576;28;20033;-95
2022/12/27 08:25:07;;;;;;;10.52;3.10;;;;;;;;;;5007636;28;20036;-94
2022/12/27 08:27:33;;;;;;;10.93;3.00;;;;;;;;;;5008402;28;20621;-92
2022/12/27 08:29:58;;;;;;;13.23;3.38;;;;;;;;;;5010298;28;20033;-94
2022/12/27 08:32:23;;;;;;;8.57;2.83;;;;;;;;;;5007272;28;20472;-95
2022/12/27 08:34:49;;;;;;;13.70;3.40;;;;;;;;;;5023507;28;20021;-95
2022/12/27 08:37:14;;;;;;;9.73;3.35;;;;;;;;;;5012690;28;20029;-95
2022/12/27 08:39:40;;;;;;;10.43;3.13;;;;;;;;;;5011687;28;20473;-96
2022/12/27 08:42:05;;;;;;;10.80;3.50;;;;;;;;;;5011417;28;20018;-95
2022/12/27 08:44:30;;;;;;;11.73;3.30;;;;;;;;;;5029959;28;20111;-95
2022/12/27 08:47:03;;;;;;;11.10;3.55;;;;;;;;;;5014508;28;20033;-95
2022/12/27 08:49:28;;;;;;;12.47;3.13;;;;;;;;;;5005138;28;20025;-95
2022/12/27 08:51:54;;;;;;;9.20;3.10;;;;;;;;;;5010690;28;20152;-95
2022/12/27 08:54:20;;;;;;;11.75;3.35;;;;;;;;;;5008328;28;20014;-94
2022/12/27 08:56:45;;;;;;;9.88;3.08;;;;;;;;;;5007516;28;20034;-95
2022/12/27 08:59:11;;;;;;;10.75;3.50;;;;;;;;;;5011342;28;20476;-95
2022/12/27 09:01:36;;;;;;;11.07;3.33;;;;;;;;;;5029055;28;20094;-95
2022/12/27 09:04:02;;;;;;;11.65;3.75;;;;;;;;;;5008625;28;20803;-95
2022/12/27 09:06:32;;;;;;;9.07;3.28;;;;;;;;;;5008744;28;20035;-95
2022/12/27 09:08:58;;;;;;;10.60;3.20;;;;;;;;;;5010074;28;20116;-95
2022/12/27 09:11:25;;;;;;;12.32;3.45;;;;;;;;;;5009252;28;20113;-95
2022/12/27 09:13:51;;;;;;;12.23;3.40;;;;;;;;;;5009165;28;20028;-95
2022/12/27 09:16:19;;;;;;;12.05;3.53;;;;;;;;;;5030734;28;20022;-96
2022/12/27 09:18:46;;;;;;;11.38;3.33;;;;;;;;;;5009572;28;20396;-95
2022/12/27 09:21:12;;;;;;;11.90;3.40;;;;;;;;;;5008701;28;20469;-96
2022/12/27 09:23:37;;;;;;;10.38;3.88;;;;;;;;;;5013109;28;20032;-96
2022/12/27 09:26:07;;;;;;;12.57;4.10;;;;;;;;;;5028968;28;20017;-96
2022/12/27 09:28:33;;;;;;;14.93;4.15;;;;;;;;;;5012127;28;20044;-96
2022/12/27 09:30:58;;;;;;;15.95;4.32;;;;;;;;;;5009733;28;20021;-94
2022/12/27 09:33:23;;;;;;;11.95;4.18;;;;;;;;;;5029187;28;20021;-95
2022/12/27 09:35:50;;;;;;;15.88;3.97;;;;;;;;;;5028729;28;20056;-95
2022/12/27 09:38:17;;;;;;;14.90;3.65;;;;;;;;;;5031613;28;20025;-95
2022/12/27 09:40:55;;;;;;;32.28;5.60;;;;;;;;;;5027208;28;20024;-95
2022/12/27 09:43:27;;;;;;;12.73;4.50;;;;;;;;;;5029188;28;20099;-96
2022/12/27 09:45:55;;;;;;;12.25;4.10;;;;;;;;;;5025389;28;20108;-95
2022/12/27 09:48:20;;;;;;;11.48;3.95;;;;;;;;;;5009567;28;20026;-95
2022/12/27 09:50:50;;;;;;;12.93;4.00;;;;;;;;;;5009620;28;20055;-95
2022/12/27 09:53:16;;;;;;;11.73;3.83;;;;;;;;;;5015227;28;20029;-95
2022/12/27 09:55:48;;;;;;;10.40;3.75;;;;;;;;;;5026828;28;20044;-95
2022/12/27 09:58:20;;;;;;;10.25;3.92;;;;;;;;;;5005792;28;20030;-95
2022/12/27 10:00:52;;;;;;;10.38;3.75;;;;;;;;;;5022931;28;20104;-93
2022/12/27 10:03:27;;;;;;;17.42;4.40;;;;;;;;;;5010904;28;20111;-93
2022/12/27 10:06:03;;;;;;;14.55;4.07;;;;;;;;;;5009146;28;20026;-95
2022/12/27 10:08:36;;;;;;;12.63;4.25;;;;;;;;;;5007415;28;20041;-92
2022/12/27 10:11:34;;;;;;;13.20;4.72;;;;;;;;;;5003107;28;20045;-93
2022/12/27 10:13:57;;;;;;;11.80;4.18;;;;;;;;;;5026313;28;20136;-93
2022/12/27 10:16:38;;;;;;;13.43;4.45;;;;;;;;;;5011051;28;20073;-96
2022/12/27 10:19:15;;;;;;;12.75;4.35;;;;;;;;;;5019533;28;20037;-94
2022/12/27 10:22:07;;;;;;;13.95;4.45;;;;;;;;;;5023066;28;20030;-96
2022/12/27 10:24:46;;;;;;;11.45;4.35;;;;;;;;;;4989672;28;20036;-96
2022/12/27 10:27:16;;;;;;;30.17;5.13;;;;;;;;;;5013444;28;20025;-96
2022/12/27 10:29:42;;;;;;;12.35;4.07;;;;;;;;;;5013276;28;20026;-96
2022/12/27 10:32:17;;;;;;;14.13;4.65;;;;;;;;;;5019154;28;20033;-95
2022/12/27 10:34:43;;;;;;;12.90;4.80;;;;;;;;;;5037475;28;20083;-96
2022/12/27 10:37:15;;;;;;;13.93;5.05;;;;;;;;;;5000795;28;20034;-96
2022/12/27 10:39:44;;;;;;;16.15;4.35;;;;;;;;;;5007487;28;20024;-96
2022/12/27 10:42:25;;;;;;;16.20;4.82;;;;;;;;;;5018305;28;20024;-96
2022/12/27 10:44:50;;;;;;;15.18;4.38;;;;;;;;;;5009525;28;20696;-96
2022/12/27 10:47:33;;;;;;;13.23;5.40;;;;;;;;;;5008048;28;20041;-96
2022/12/27 10:50:28;;;;;;;12.93;4.93;;;;;;;;;;5022602;28;20113;-96
2022/12/27 10:52:55;;;;;;;13.35;4.70;;;;;;;;;;5009183;28;20024;-96
2022/12/27 10:55:36;;;;;;;11.57;4.65;;;;;;;;;;5007330;28;20055;-96
2022/12/27 10:58:19;;;;;;;13.57;4.70;;;;;;;;;;5007126;28;20036;-96
2022/12/27 11:01:06;;;;;;;13.77;4.40;;;;;;;;;;5008498;28;20025;-96
2022/12/27 11:03:34;;;;;;;11.57;4.35;;;;;;;;;;5011180;28;20057;-96
2022/12/27 11:06:05;;;;;;;11.20;4.47;;;;;;;;;;5000236;28;20049;-96
2022/12/27 11:08:30;;;;;;;15.30;4.97;;;;;;;;;;5011076;28;20038;-96
2022/12/27 11:11:14;;;;;;;11.95;4.03;;;;;;;;;;5008954;28;20026;-96
2022/12/27 11:13:39;;;;;;;12.07;3.60;;;;;;;;;;5002873;28;20021;-96
2022/12/27 11:16:05;;;;;;;9.90;3.03;;;;;;;;;;5010066;28;20024;-96
2022/12/27 11:18:34;;;;;;;12.23;3.88;;;;;;;;;;5008975;28;20108;-96
2022/12/27 11:21:05;;;;;;;11.15;3.55;;;;;;;;;;5006484;28;20030;-96
2022/12/27 11:23:42;;;;;;;11.10;3.80;;;;;;;;;;5009583;28;20815;-96
2022/12/27 11:26:16;;;;;;;8.93;3.17;;;;;;;;;;5012133;28;20049;-95
2022/12/27 11:28:46;;;;;;;9.00;3.15;;;;;;;;;;5014439;28;20042;-96
2022/12/27 11:31:16;;;;;;;10.43;3.40;;;;;;;;;;5005446;28;20134;-96
2022/12/27 11:33:59;;;;;;;9.52;3.45;;;;;;;;;;5007210;28;20041;-96
2022/12/27 11:36:24;;;;;;;9.13;2.97;;;;;;;;;;5006654;28;20112;-96
2022/12/27 11:38:50;;;;;;;9.32;2.72;;;;;;;;;;5010767;28;20044;-96
2022/12/27 11:41:22;;;;;;;8.75;2.67;;;;;;;;;;5019153;28;20060;-96
2022/12/27 11:43:56;;;;;;;8.73;2.78;;;;;;;;;;5024485;28;20021;-96
2022/12/27 11:46:31;;;;;;;10.70;3.05;;;;;;;;;;5020173;28;20037;-96
2022/12/27 11:48:57;;;;;;;10.02;2.72;;;;;;;;;;5008564;28;20029;-95
2022/12/27 11:51:41;;;;;;;9.55;2.83;;;;;;;;;;5011510;28;20024;-94
2022/12/27 11:54:16;;;;;;;10.73;2.75;;;;;;;;;;5010721;28;20021;-95
2022/12/27 11:57:02;;;;;;;11.50;2.78;;;;;;;;;;5023915;28;20099;-95
2022/12/27 11:59:28;;;;;;;10.10;3.00;;;;;;;;;;5006198;28;20089;-91
2022/12/27 12:02:09;;;;;;;11.90;2.78;;;;;;;;;;5001784;28;20744;-91
2022/12/27 12:04:50;;;;;;;10.55;2.50;;;;;;;;;;4986106;28;20045;-89
2022/12/27 12:07:30;;;;;;;11.10;2.78;;;;;;;;;;5002555;28;20120;-91
2022/12/27 12:10:15;;;;;;;8.63;2.50;;;;;;;;;;4979228;28;20018;-91
2022/12/27 12:12:40;;;;;;;8.20;2.10;;;;;;;;;;4986828;28;20026;-90
2022/12/27 12:15:27;;;;;;;10.65;2.30;;;;;;;;;;4976401;28;20034;-90
2022/12/27 12:18:07;;;;;;;8.40;2.15;;;;;;;;;;5005619;28;20025;-92
2022/12/27 12:20:35;;;;;;;9.77;2.45;;;;;;;;;;4981169;28;20033;-91
2022/12/27 12:23:01;;;;;;;10.52;2.50;;;;;;;;;;4975915;28;20049;-90
2022/12/27 12:25:37;;;;;;;9.13;2.20;;;;;;;;;;4994958;28;20223;-91
2022/12/27 12:28:06;;;;;;;13.23;2.70;;;;;;;;;;4981502;28;20196;-91
2022/12/27 12:30:46;;;;;;;7.53;1.95;;;;;;;;;;4981888;28;20052;-91
2022/12/27 12:33:24;;;;;;;9.90;2.38;;;;;;;;;;4987905;28;20034;-89
2022/12/27 12:35:56;;;;;;;6.85;2.15;;;;;;;;;;4995416;28;20018;-90
2022/12/27 12:38:28;;;;;;;7.53;2.20;;;;;;;;;;4997234;28;20763;-90
2022/12/27 12:41:07;;;;;;;10.18;2.53;;;;;;;;;;4987357;28;20457;-91
2022/12/27 12:43:50;;;;;;;8.45;2.38;;;;;;;;;;4983192;28;20124;-92
2022/12/27 12:46:16;;;;;;;;;;;;;;;;;;4998144;28;20030;-90
2022/12/27 12:49:17;;;;;;;10.30;2.40;;;;;;;;;;5003251;28;20594;-91
2022/12/27 12:51:49;;;;;;;11.48;2.65;;;;;;;;;;4982704;28;20084;-91
2022/12/27 12:54:17;;;;;;;8.40;2.70;;;;;;;;;;4979423;28;20046;-91
2022/12/27 12:56:43;;;;;;;9.85;2.50;;;;;;;;;;5012070;28;20482;-90
2022/12/27 12:59:24;;;;;;;8.32;2.67;;;;;;;;;;5000827;28;20041;-90
2022/12/27 13:02:15;;;;;;;10.75;2.35;;;;;;;;;;5003295;28;20060;-89
2022/12/27 13:04:53;;;;;;;12.15;2.60;;;;;;;;;;4995432;28;20516;-89
2022/12/27 13:10:26;;;;;;;9.40;2.30;;;;;;;;;;5017652;28;20026;-90
2022/12/27 13:12:56;;;;;;;11.35;2.90;;;;;;;;;;5020833;28;20079;-90
2022/12/27 13:15:35;;;;;;;9.40;2.50;;;;;;;;;;5022024;28;20018;-90
2022/12/27 13:18:17;;;;;;;12.15;2.65;;;;;;;;;;5021064;28;20021;-90
2022/12/27 13:20:48;;;;;;;8.80;2.70;;;;;;;;;;5002953;28;20103;-89
2022/12/27 13:23:34;;;;;;;10.38;2.78;;;;;;;;;;5003294;28;20501;-89
2022/12/27 13:25:59;;;;;;;8.63;2.70;;;;;;;;;;4994075;28;20029;-90
2022/12/27 13:28:28;;;;;;;11.23;2.63;;;;;;;;;;4994265;28;20504;-89
2022/12/27 13:31:01;;;;;;;11.68;2.50;;;;;;;;;;5002222;28;20473;-88
2022/12/27 13:33:27;;;;;;;13.82;2.75;;;;;;;;;;4992090;28;20120;-89
2022/12/27 13:36:11;;;;;;;9.02;2.47;;;;;;;;;;5019900;28;20120;-89
2022/12/27 13:38:39;;;;;;;9.20;2.42;;;;;;;;;;5018653;28;20652;-89
2022/12/27 13:41:25;;;;;;;9.30;2.42;;;;;;;;;;5002573;28;20055;-89
2022/12/27 13:44:02;;;;;;;14.10;2.60;;;;;;;;;;5022927;28;20531;-90
2022/12/27 13:46:40;;;;;;;8.63;2.45;;;;;;;;;;4999570;28;20026;-90
2022/12/27 13:49:17;;;;;;;9.30;2.47;;;;;;;;;;5016634;28;20096;-92
2022/12/27 13:51:44;;;;;;;10.45;2.47;;;;;;;;;;5016563;28;20061;-89
2022/12/27 13:54:27;;;;;;;10.50;2.53;;;;;;;;;;4992644;28;20022;-90
2022/12/27 13:56:52;;;;;;;;;;;;;;;;;;4999643;28;20094;-90
2022/12/27 13:59:36;;;;;;;8.68;2.50;;;;;;;;;;4997338;28;19917;-89
2022/12/27 14:02:02;;;;;;;9.35;2.58;;;;;;;;;;5011803;28;20033;-90
2022/12/27 14:04:46;;;;;;;13.15;2.80;;;;;;;;;;5019228;28;20584;-91
2022/12/27 14:07:17;;;;;;;13.85;3.05;;;;;;;;;;5006038;28;20680;-88
2022/12/27 14:09:54;;;;;;;25.52;3.70;;;;;;;;;;5022498;28;20125;-88
2022/12/27 14:12:26;;;;;;;9.55;2.55;;;;;;;;;;5023813;28;20026;-89
2022/12/27 14:14:56;;;;;;;10.10;2.65;;;;;;;;;;5022199;28;20361;-89
2022/12/27 14:17:27;;;;;;;15.23;2.60;;;;;;;;;;5006651;28;20021;-89
2022/12/27 14:19:55;;;;;;;11.00;2.50;;;;;;;;;;5021744;28;20029;-89
2022/12/27 14:22:36;;;;;;;9.90;2.40;;;;;;;;;;5024983;28;20026;-89
2022/12/27 14:25:05;;;;;;;9.95;2.08;;;;;;;;;;4999321;28;20119;-89
2022/12/27 14:27:49;;;;;;;8.45;2.15;;;;;;;;;;5022962;28;20045;-89
2022/12/27 14:30:32;;;;;;;8.38;2.17;;;;;;;;;;5023245;28;20034;-90
2022/12/27 14:33:16;;;;;;;7.63;1.80;;;;;;;;;;5021611;28;20022;-90
2022/12/27 14:35:54;;;;;;;6.13;1.55;;;;;;;;;;5000467;28;20025;-90
2022/12/27 14:38:25;;;;;;;7.95;1.90;;;;;;;;;;5024499;28;20025;-90
2022/12/27 14:41:09;;;;;;;7.90;1.70;;;;;;;;;;5004296;28;20038;-90
2022/12/27 14:43:49;;;;;;;4.32;1.17;;;;;;;;;;5005358;28;20071;-89
2022/12/27 14:46:17;;;;;;;6.88;1.50;;;;;;;;;;5021714;28;20026;-90
2022/12/27 14:48:51;;;;;;;6.90;1.60;;;;;;;;;;5024850;28;20079;-88
2022/12/27 14:51:43;;;;;;;8.18;1.27;;;;;;;;;;5005958;28;20044;-88
2022/12/27 14:54:14;;;;;;;6.63;1.45;;;;;;;;;;4997357;28;20064;-88
2022/12/27 14:56:55;;;;;;;6.68;1.38;;;;;;;;;;5001573;28;20165;-91
2022/12/27 14:59:20;;;;;;;7.55;1.60;;;;;;;;;;5004172;28;20033;-89
2022/12/27 15:01:51;;;;;;;7.55;1.70;;;;;;;;;;5024378;28;20554;-88
2022/12/27 15:04:16;;;;;;;5.53;1.30;;;;;;;;;;5019259;28;20069;-89
2022/12/27 15:07:01;;;;;;;8.00;1.50;;;;;;;;;;5003969;28;20049;-88
2022/12/27 15:09:32;;;;;;;6.88;1.50;;;;;;;;;;5025894;28;20262;-89
2022/12/27 15:12:17;;;;;;;4.78;1.30;;;;;;;;;;4999415;28;20021;-89
2022/12/27 15:14:46;;;;;;;6.45;1.40;;;;;;;;;;4989374;28;20029;-89
2022/12/27 15:17:20;;;;;;;7.35;1.58;;;;;;;;;;5002893;28;20189;-88
2022/12/27 15:19:54;;;;;;;5.47;1.83;;;;;;;;;;5029098;28;20033;-88
2022/12/27 15:22:27;;;;;;;9.18;1.35;;;;;;;;;;5009168;28;20399;-89
2022/12/27 15:25:11;;;;;;;5.63;1.40;;;;;;;;;;5008506;28;20040;-89
2022/12/27 15:27:39;;;;;;;6.03;1.40;;;;;;;;;;5007041;28;20033;-89
2022/12/27 15:30:19;;;;;;;6.65;1.30;;;;;;;;;;5028888;28;20026;-89
2022/12/27 15:32:48;;;;;;;7.78;1.30;;;;;;;;;;4998828;28;20026;-89
2022/12/27 15:35:32;;;;;;;6.28;1.52;;;;;;;;;;5020813;28;20053;-89
2022/12/27 15:38:00;;;;;;;9.32;1.80;;;;;;;;;;5017996;28;20056;-89
2022/12/27 15:40:32;;;;;;;6.78;1.38;;;;;;;;;;5003194;28;20021;-89
2022/12/27 15:43:15;;;;;;;5.40;1.40;;;;;;;;;;5025436;28;20082;-89
2022/12/27 15:45:43;;;;;;;5.40;1.40;;;;;;;;;;5005820;28;20778;-89
2022/12/27 15:48:24;;;;;;;6.88;1.30;;;;;;;;;;5012636;28;20037;-89
2022/12/27 15:51:00;;;;;;;6.88;1.40;;;;;;;;;;5030035;28;20720;-89
2022/12/27 15:53:48;;;;;;;6.93;1.45;;;;;;;;;;5008427;28;20180;-90
2022/12/27 15:56:16;;;;;;;5.75;1.25;;;;;;;;;;4998247;28;20029;-89
2022/12/27 15:58:42;;;;;;;5.10;1.10;;;;;;;;;;5023900;28;20021;-89
2022/12/27 16:01:16;;;;;;;5.18;1.30;;;;;;;;;;5002648;28;20025;-89
2022/12/27 16:03:43;;;;;;;5.43;1.05;;;;;;;;;;5028832;28;20050;-89
2022/12/27 16:06:31;;;;;;;8.80;1.35;;;;;;;;;;5005182;28;20163;-89
2022/12/27 16:09:15;;;;;;;4.95;1.30;;;;;;;;;;5000961;28;20488;-89
2022/12/27 16:11:40;;;;;;;;;;;;;;;;;;5025176;28;20038;-89
2022/12/27 16:14:25;;;;;;;6.20;1.70;;;;;;;;;;5025191;28;19936;-89
2022/12/27 16:16:52;;;;;;;6.78;1.38;;;;;;;;;;5008803;28;20120;-89
2022/12/27 16:19:23;;;;;;;5.47;1.10;;;;;;;;;;5026777;28;20033;-90
2022/12/27 16:21:50;;;;;;;7.00;1.25;;;;;;;;;;5000842;28;20029;-89
2022/12/27 16:24:20;;;;;;;5.45;1.25;;;;;;;;;;5004704;28;20055;-88
2022/12/27 16:27:01;;;;;;;6.93;1.10;;;;;;;;;;5008802;28;20733;-89
2022/12/27 16:29:33;;;;;;;4.22;1.20;;;;;;;;;;5028759;28;20026;-89
2022/12/27 16:32:16;;;;;;;6.75;1.20;;;;;;;;;;5012989;28;20025;-90
2022/12/27 16:34:43;;;;;;;6.63;1.20;;;;;;;;;;5005618;28;20112;-90
2022/12/27 16:37:26;;;;;;;5.07;1.40;;;;;;;;;;5028817;28;20040;-90
2022/12/27 16:39:51;;;;;;;7.97;1.42;;;;;;;;;;5009691;28;20041;-89